sensor_id;sensor_type;location;lat;lon;timestamp;temperature;humidity
44851;DHT22;30583;48.714;9.386;2023-12-28T00:01:08;6.20;67.10
44851;DHT22;30583;48.714;9.386;2023-12-28T00:03:34;6.10;67.70
44851;DHT22;30583;48.714;9.386;2023-12-28T00:05:59;5.50;69.40
44851;DHT22;30583;48.714;9.386;2023-12-28T00:08:25;5.40;70.10
44851;DHT22;30583;48.714;9.386;2023-12-28T00:10:50;5.10;69.60
44851;DHT22;30583;48.714;9.386;2023-12-28T00:13:17;5.40;70.10
44851;DHT22;30583;48.714;9.386;2023-12-28T00:15:42;5.40;70.10
44851;DHT22;30583;48.714;9.386;2023-12-28T00:18:08;5.90;69.00
44851;DHT22;30583;48.714;9.386;2023-12-28T00:20:33;6.10;67.80
44851;DHT22;30583;48.714;9.386;2023-12-28T00:22:59;5.90;68.60
44851;DHT22;30583;48.714;9.386;2023-12-28T00:25:25;5.90;68.70
44851;DHT22;30583;48.714;9.386;2023-12-28T00:27:51;5.40;69.20
44851;DHT22;30583;48.714;9.386;2023-12-28T00:30:16;5.00;71.00
44851;DHT22;30583;48.714;9.386;2023-12-28T00:32:43;5.30;70.80
44851;DHT22;30583;48.714;9.386;2023-12-28T00:35:10;5.10;70.10
44851;DHT22;30583;48.714;9.386;2023-12-28T00:37:36;5.40;70.30
44851;DHT22;30583;48.714;9.386;2023-12-28T00:40:01;5.70;69.30
44851;DHT22;30583;48.714;9.386;2023-12-28T00:42:27;5.40;69.80
44851;DHT22;30583;48.714;9.386;2023-12-28T00:44:53;5.50;69.70
44851;DHT22;30583;48.714;9.386;2023-12-28T00:47:18;4.70;71.90
44851;DHT22;30583;48.714;9.386;2023-12-28T00:49:44;5.00;71.30
44851;DHT22;30583;48.714;9.386;2023-12-28T00:52:09;4.80;71.70
44851;DHT22;30583;48.714;9.386;2023-12-28T00:54:38;5.50;70.20
44851;DHT22;30583;48.714;9.386;2023-12-28T00:57:04;5.60;69.70
44851;DHT22;30583;48.714;9.386;2023-12-28T00:59:30;5.80;68.10
44851;DHT22;30583;48.714;9.386;2023-12-28T01:01:56;5.10;69.50
44851;DHT22;30583;48.714;9.386;2023-12-28T01:04:22;4.70;71.60
44851;DHT22;30583;48.714;9.386;2023-12-28T01:06:49;4.80;71.00
44851;DHT22;30583;48.714;9.386;2023-12-28T01:09:15;5.40;70.40
44851;DHT22;30583;48.714;9.386;2023-12-28T01:11:40;5.70;68.80
44851;DHT22;30583;48.714;9.386;2023-12-28T01:14:06;5.70;68.10
44851;DHT22;30583;48.714;9.386;2023-12-28T01:16:32;5.60;68.70
44851;DHT22;30583;48.714;9.386;2023-12-28T01:18:58;4.90;69.50
44851;DHT22;30583;48.714;9.386;2023-12-28T01:21:23;5.20;70.30
44851;DHT22;30583;48.714;9.386;2023-12-28T01:23:50;5.70;68.50
44851;DHT22;30583;48.714;9.386;2023-12-28T01:26:16;5.40;68.90
44851;DHT22;30583;48.714;9.386;2023-12-28T01:28:44;4.60;70.60
44851;DHT22;30583;48.714;9.386;2023-12-28T01:31:10;4.70;71.70
44851;DHT22;30583;48.714;9.386;2023-12-28T01:33:35;5.40;68.90
44851;DHT22;30583;48.714;9.386;2023-12-28T01:36:02;5.30;69.10
44851;DHT22;30583;48.714;9.386;2023-12-28T01:38:27;5.30;69.40
44851;DHT22;30583;48.714;9.386;2023-12-28T01:40:53;5.50;68.70
44851;DHT22;30583;48.714;9.386;2023-12-28T01:43:18;5.10;69.00
44851;DHT22;30583;48.714;9.386;2023-12-28T01:45:45;4.40;71.10
44851;DHT22;30583;48.714;9.386;2023-12-28T01:48:11;5.20;69.90
44851;DHT22;30583;48.714;9.386;2023-12-28T01:50:38;5.60;68.30
44851;DHT22;30583;48.714;9.386;2023-12-28T01:53:04;5.90;67.30
44851;DHT22;30583;48.714;9.386;2023-12-28T01:55:30;5.60;67.50
44851;DHT22;30583;48.714;9.386;2023-12-28T01:57:58;5.60;67.00
44851;DHT22;30583;48.714;9.386;2023-12-28T02:00:24;5.50;67.60
44851;DHT22;30583;48.714;9.386;2023-12-28T02:02:51;5.50;67.30
44851;DHT22;30583;48.714;9.386;2023-12-28T02:05:17;5.60;67.30
44851;DHT22;30583;48.714;9.386;2023-12-28T02:07:43;5.70;66.70
44851;DHT22;30583;48.714;9.386;2023-12-28T02:10:08;5.60;67.60
44851;DHT22;30583;48.714;9.386;2023-12-28T02:12:34;5.40;67.70
44851;DHT22;30583;48.714;9.386;2023-12-28T02:15:00;5.50;67.90
44851;DHT22;30583;48.714;9.386;2023-12-28T02:20:20;5.70;67.20
44851;DHT22;30583;48.714;9.386;2023-12-28T02:22:46;5.60;67.10
44851;DHT22;30583;48.714;9.386;2023-12-28T02:25:13;5.50;67.70
44851;DHT22;30583;48.714;9.386;2023-12-28T02:27:46;5.60;66.60
44851;DHT22;30583;48.714;9.386;2023-12-28T02:30:17;5.10;68.10
44851;DHT22;30583;48.714;9.386;2023-12-28T02:35:46;5.00;68.60
44851;DHT22;30583;48.714;9.386;2023-12-28T02:38:14;5.20;68.20
44851;DHT22;30583;48.714;9.386;2023-12-28T02:40:44;5.20;67.70
44851;DHT22;30583;48.714;9.386;2023-12-28T02:43:10;4.80;68.80
44851;DHT22;30583;48.714;9.386;2023-12-28T02:45:37;4.70;69.60
44851;DHT22;30583;48.714;9.386;2023-12-28T02:48:04;5.10;68.80
44851;DHT22;30583;48.714;9.386;2023-12-28T02:50:30;5.00;68.20
44851;DHT22;30583;48.714;9.386;2023-12-28T02:52:56;5.20;68.10
44851;DHT22;30583;48.714;9.386;2023-12-28T02:55:22;5.40;67.70
44851;DHT22;30583;48.714;9.386;2023-12-28T02:57:53;5.10;67.40
44851;DHT22;30583;48.714;9.386;2023-12-28T03:00:21;5.20;67.70
44851;DHT22;30583;48.714;9.386;2023-12-28T03:02:46;5.10;67.10
44851;DHT22;30583;48.714;9.386;2023-12-28T03:05:12;5.40;67.20
44851;DHT22;30583;48.714;9.386;2023-12-28T03:07:37;5.50;66.60
44851;DHT22;30583;48.714;9.386;2023-12-28T03:10:04;5.30;67.30
44851;DHT22;30583;48.714;9.386;2023-12-28T03:12:30;5.00;68.10
44851;DHT22;30583;48.714;9.386;2023-12-28T03:14:56;4.40;68.80
44851;DHT22;30583;48.714;9.386;2023-12-28T03:17:22;4.70;69.40
44851;DHT22;30583;48.714;9.386;2023-12-28T03:19:47;4.50;69.60
44851;DHT22;30583;48.714;9.386;2023-12-28T03:22:13;4.50;72.10
44851;DHT22;30583;48.714;9.386;2023-12-28T03:24:39;5.00;70.40
44851;DHT22;30583;48.714;9.386;2023-12-28T03:27:05;4.50;71.30
44851;DHT22;30583;48.714;9.386;2023-12-28T03:29:31;5.20;70.60
44851;DHT22;30583;48.714;9.386;2023-12-28T03:31:57;6.40;68.20
44851;DHT22;30583;48.714;9.386;2023-12-28T03:34:23;5.20;67.50
44851;DHT22;30583;48.714;9.386;2023-12-28T03:36:49;4.90;69.00
44851;DHT22;30583;48.714;9.386;2023-12-28T03:39:15;4.70;69.20
44851;DHT22;30583;48.714;9.386;2023-12-28T03:41:40;5.10;68.40
44851;DHT22;30583;48.714;9.386;2023-12-28T03:44:06;5.20;68.00
44851;DHT22;30583;48.714;9.386;2023-12-28T03:46:31;5.20;67.60
44851;DHT22;30583;48.714;9.386;2023-12-28T03:48:57;5.30;67.60
44851;DHT22;30583;48.714;9.386;2023-12-28T03:51:23;4.90;68.10
44851;DHT22;30583;48.714;9.386;2023-12-28T03:53:48;5.00;68.10
44851;DHT22;30583;48.714;9.386;2023-12-28T03:56:27;4.90;68.80
44851;DHT22;30583;48.714;9.386;2023-12-28T03:58:53;4.50;69.60
44851;DHT22;30583;48.714;9.386;2023-12-28T04:01:20;4.50;70.10
44851;DHT22;30583;48.714;9.386;2023-12-28T04:03:47;4.90;68.90
44851;DHT22;30583;48.714;9.386;2023-12-28T04:06:13;4.90;68.80
44851;DHT22;30583;48.714;9.386;2023-12-28T04:08:40;5.00;68.20
44851;DHT22;30583;48.714;9.386;2023-12-28T04:11:05;5.00;68.80
44851;DHT22;30583;48.714;9.386;2023-12-28T04:13:31;4.80;68.30
44851;DHT22;30583;48.714;9.386;2023-12-28T04:15:57;4.40;69.90
44851;DHT22;30583;48.714;9.386;2023-12-28T04:18:23;4.40;70.20
44851;DHT22;30583;48.714;9.386;2023-12-28T04:20:48;4.60;70.50
44851;DHT22;30583;48.714;9.386;2023-12-28T04:23:14;4.70;69.60
44851;DHT22;30583;48.714;9.386;2023-12-28T04:25:40;4.80;69.10
44851;DHT22;30583;48.714;9.386;2023-12-28T04:28:08;4.90;69.00
44851;DHT22;30583;48.714;9.386;2023-12-28T04:30:34;4.60;69.30
44851;DHT22;30583;48.714;9.386;2023-12-28T04:33:03;4.40;70.50
44851;DHT22;30583;48.714;9.386;2023-12-28T04:35:28;4.20;70.80
44851;DHT22;30583;48.714;9.386;2023-12-28T04:37:54;4.80;69.70
44851;DHT22;30583;48.714;9.386;2023-12-28T04:40:20;5.10;68.20
44851;DHT22;30583;48.714;9.386;2023-12-28T04:42:46;5.20;67.70
44851;DHT22;30583;48.714;9.386;2023-12-28T04:45:11;5.00;68.10
44851;DHT22;30583;48.714;9.386;2023-12-28T04:47:37;4.60;69.30
44851;DHT22;30583;48.714;9.386;2023-12-28T04:50:03;4.70;69.60
44851;DHT22;30583;48.714;9.386;2023-12-28T04:52:30;5.00;69.10
44851;DHT22;30583;48.714;9.386;2023-12-28T04:54:56;5.10;68.40
44851;DHT22;30583;48.714;9.386;2023-12-28T04:57:22;4.90;68.40
44851;DHT22;30583;48.714;9.386;2023-12-28T04:59:50;4.90;69.30
44851;DHT22;30583;48.714;9.386;2023-12-28T05:02:15;4.70;70.10
44851;DHT22;30583;48.714;9.386;2023-12-28T05:04:41;4.70;70.20
44851;DHT22;30583;48.714;9.386;2023-12-28T05:07:07;4.50;70.60
44851;DHT22;30583;48.714;9.386;2023-12-28T05:09:33;4.60;70.00
44851;DHT22;30583;48.714;9.386;2023-12-28T05:11:58;4.40;70.90
44851;DHT22;30583;48.714;9.386;2023-12-28T05:14:24;4.60;70.70
44851;DHT22;30583;48.714;9.386;2023-12-28T05:16:50;5.00;69.40
44851;DHT22;30583;48.714;9.386;2023-12-28T05:19:15;5.30;68.60
44851;DHT22;30583;48.714;9.386;2023-12-28T05:21:41;5.30;68.50
44851;DHT22;30583;48.714;9.386;2023-12-28T05:24:06;4.90;68.80
44851;DHT22;30583;48.714;9.386;2023-12-28T05:26:32;4.80;69.50
44851;DHT22;30583;48.714;9.386;2023-12-28T05:28:58;4.70;69.50
44851;DHT22;30583;48.714;9.386;2023-12-28T05:31:23;4.90;69.60
44851;DHT22;30583;48.714;9.386;2023-12-28T05:33:49;5.10;69.10
44851;DHT22;30583;48.714;9.386;2023-12-28T05:36:14;4.90;69.70
44851;DHT22;30583;48.714;9.386;2023-12-28T05:38:40;5.10;69.20
44851;DHT22;30583;48.714;9.386;2023-12-28T05:41:06;5.20;68.60
44851;DHT22;30583;48.714;9.386;2023-12-28T05:43:31;5.30;68.70
44851;DHT22;30583;48.714;9.386;2023-12-28T05:45:57;5.20;69.00
44851;DHT22;30583;48.714;9.386;2023-12-28T05:48:22;4.90;70.00
44851;DHT22;30583;48.714;9.386;2023-12-28T05:50:48;5.40;68.90
44851;DHT22;30583;48.714;9.386;2023-12-28T05:53:14;5.40;68.90
44851;DHT22;30583;48.714;9.386;2023-12-28T05:55:43;5.30;69.00
44851;DHT22;30583;48.714;9.386;2023-12-28T05:58:09;5.40;68.90
44851;DHT22;30583;48.714;9.386;2023-12-28T06:00:35;5.20;69.30
44851;DHT22;30583;48.714;9.386;2023-12-28T06:03:04;5.10;69.10
44851;DHT22;30583;48.714;9.386;2023-12-28T06:05:30;5.00;69.50
44851;DHT22;30583;48.714;9.386;2023-12-28T06:07:56;4.80;70.80
44851;DHT22;30583;48.714;9.386;2023-12-28T06:10:21;5.20;70.30
44851;DHT22;30583;48.714;9.386;2023-12-28T06:12:47;5.20;70.10
44851;DHT22;30583;48.714;9.386;2023-12-28T06:15:13;5.00;69.80
44851;DHT22;30583;48.714;9.386;2023-12-28T06:17:39;4.60;71.50
44851;DHT22;30583;48.714;9.386;2023-12-28T06:20:05;4.50;71.70
44851;DHT22;30583;48.714;9.386;2023-12-28T06:22:30;4.60;71.40
44851;DHT22;30583;48.714;9.386;2023-12-28T06:24:56;4.80;72.00
44851;DHT22;30583;48.714;9.386;2023-12-28T06:27:22;5.20;70.60
44851;DHT22;30583;48.714;9.386;2023-12-28T06:29:51;5.40;70.10
44851;DHT22;30583;48.714;9.386;2023-12-28T06:32:16;5.70;69.20
44851;DHT22;30583;48.714;9.386;2023-12-28T06:34:42;5.70;68.50
44851;DHT22;30583;48.714;9.386;2023-12-28T06:37:07;5.60;69.40
44851;DHT22;30583;48.714;9.386;2023-12-28T06:39:33;5.40;69.50
44851;DHT22;30583;48.714;9.386;2023-12-28T06:41:58;5.40;69.50
44851;DHT22;30583;48.714;9.386;2023-12-28T06:44:24;5.60;69.00
44851;DHT22;30583;48.714;9.386;2023-12-28T06:46:49;5.60;69.40
44851;DHT22;30583;48.714;9.386;2023-12-28T06:49:15;6.20;71.80
44851;DHT22;30583;48.714;9.386;2023-12-28T06:51:41;6.20;71.40
44851;DHT22;30583;48.714;9.386;2023-12-28T06:54:08;6.30;70.20
44851;DHT22;30583;48.714;9.386;2023-12-28T06:56:34;6.30;69.00
44851;DHT22;30583;48.714;9.386;2023-12-28T06:59:00;6.10;68.70
44851;DHT22;30583;48.714;9.386;2023-12-28T07:01:25;6.10;68.10
44851;DHT22;30583;48.714;9.386;2023-12-28T07:03:51;6.00;69.10
44851;DHT22;30583;48.714;9.386;2023-12-28T07:06:17;5.90;69.70
44851;DHT22;30583;48.714;9.386;2023-12-28T07:08:43;6.10;69.30
44851;DHT22;30583;48.714;9.386;2023-12-28T07:11:11;5.90;69.00
44851;DHT22;30583;48.714;9.386;2023-12-28T07:13:37;5.60;70.90
44851;DHT22;30583;48.714;9.386;2023-12-28T07:16:03;6.30;69.30
44851;DHT22;30583;48.714;9.386;2023-12-28T07:18:29;6.40;69.00
44851;DHT22;30583;48.714;9.386;2023-12-28T07:20:54;6.40;68.20
44851;DHT22;30583;48.714;9.386;2023-12-28T07:23:20;6.30;68.50
44851;DHT22;30583;48.714;9.386;2023-12-28T07:25:46;6.40;67.90
44851;DHT22;30583;48.714;9.386;2023-12-28T07:28:11;6.30;68.60
44851;DHT22;30583;48.714;9.386;2023-12-28T07:30:37;6.20;68.50
44851;DHT22;30583;48.714;9.386;2023-12-28T07:33:03;6.30;69.00
44851;DHT22;30583;48.714;9.386;2023-12-28T07:35:29;6.40;68.60
44851;DHT22;30583;48.714;9.386;2023-12-28T07:37:55;6.30;68.90
44851;DHT22;30583;48.714;9.386;2023-12-28T07:40:20;6.50;68.40
44851;DHT22;30583;48.714;9.386;2023-12-28T07:42:46;6.40;68.40
44851;DHT22;30583;48.714;9.386;2023-12-28T07:45:11;6.40;68.60
44851;DHT22;30583;48.714;9.386;2023-12-28T07:47:37;6.50;68.50
44851;DHT22;30583;48.714;9.386;2023-12-28T07:50:03;6.40;69.20
44851;DHT22;30583;48.714;9.386;2023-12-28T07:52:29;6.40;68.80
44851;DHT22;30583;48.714;9.386;2023-12-28T07:54:54;6.50;68.30
44851;DHT22;30583;48.714;9.386;2023-12-28T07:57:20;6.50;68.50
44851;DHT22;30583;48.714;9.386;2023-12-28T07:59:46;6.70;68.20
44851;DHT22;30583;48.714;9.386;2023-12-28T08:02:12;6.40;68.60
44851;DHT22;30583;48.714;9.386;2023-12-28T08:04:37;6.50;68.80
44851;DHT22;30583;48.714;9.386;2023-12-28T08:07:03;6.80;67.90
44851;DHT22;30583;48.714;9.386;2023-12-28T08:09:29;6.90;68.20
44851;DHT22;30583;48.714;9.386;2023-12-28T08:11:55;6.60;68.40
44851;DHT22;30583;48.714;9.386;2023-12-28T08:14:21;6.80;68.40
44851;DHT22;30583;48.714;9.386;2023-12-28T08:16:46;7.00;68.10
44851;DHT22;30583;48.714;9.386;2023-12-28T08:19:12;7.00;67.90
44851;DHT22;30583;48.714;9.386;2023-12-28T08:21:38;6.70;68.40
44851;DHT22;30583;48.714;9.386;2023-12-28T08:24:03;6.90;68.30
44851;DHT22;30583;48.714;9.386;2023-12-28T08:26:29;6.90;68.00
44851;DHT22;30583;48.714;9.386;2023-12-28T08:28:55;6.80;68.10
44851;DHT22;30583;48.714;9.386;2023-12-28T08:31:21;6.70;68.20
44851;DHT22;30583;48.714;9.386;2023-12-28T08:33:46;7.00;67.90
44851;DHT22;30583;48.714;9.386;2023-12-28T08:36:12;7.10;68.00
44851;DHT22;30583;48.714;9.386;2023-12-28T08:38:38;7.10;68.10
44851;DHT22;30583;48.714;9.386;2023-12-28T08:41:04;7.20;68.00
44851;DHT22;30583;48.714;9.386;2023-12-28T08:43:35;7.00;68.30
44851;DHT22;30583;48.714;9.386;2023-12-28T08:46:00;7.10;68.60
44851;DHT22;30583;48.714;9.386;2023-12-28T08:48:26;7.10;68.40
44851;DHT22;30583;48.714;9.386;2023-12-28T08:50:52;7.20;68.10
44851;DHT22;30583;48.714;9.386;2023-12-28T08:53:17;7.00;68.20
44851;DHT22;30583;48.714;9.386;2023-12-28T08:55:43;7.30;67.80
44851;DHT22;30583;48.714;9.386;2023-12-28T08:58:08;7.10;68.40
44851;DHT22;30583;48.714;9.386;2023-12-28T09:00:34;7.20;68.30
44851;DHT22;30583;48.714;9.386;2023-12-28T09:02:59;7.30;68.00
44851;DHT22;30583;48.714;9.386;2023-12-28T09:05:25;7.10;68.40
44851;DHT22;30583;48.714;9.386;2023-12-28T09:07:51;7.20;68.40
44851;DHT22;30583;48.714;9.386;2023-12-28T09:10:16;6.70;69.80
44851;DHT22;30583;48.714;9.386;2023-12-28T09:12:42;6.60;70.50
44851;DHT22;30583;48.714;9.386;2023-12-28T09:15:08;6.70;70.20
44851;DHT22;30583;48.714;9.386;2023-12-28T09:17:34;6.70;70.30
44851;DHT22;30583;48.714;9.386;2023-12-28T09:20:00;7.00;69.90
44851;DHT22;30583;48.714;9.386;2023-12-28T09:22:27;6.90;70.20
44851;DHT22;30583;48.714;9.386;2023-12-28T09:24:52;7.20;69.60
44851;DHT22;30583;48.714;9.386;2023-12-28T09:27:18;7.40;68.60
44851;DHT22;30583;48.714;9.386;2023-12-28T09:29:43;7.40;68.70
44851;DHT22;30583;48.714;9.386;2023-12-28T09:32:09;7.40;68.60
44851;DHT22;30583;48.714;9.386;2023-12-28T09:34:34;7.50;68.00
44851;DHT22;30583;48.714;9.386;2023-12-28T09:37:00;7.40;67.70
44851;DHT22;30583;48.714;9.386;2023-12-28T09:39:26;7.20;68.00
44851;DHT22;30583;48.714;9.386;2023-12-28T09:42:04;7.20;68.70
44851;DHT22;30583;48.714;9.386;2023-12-28T09:44:36;7.20;68.80
44851;DHT22;30583;48.714;9.386;2023-12-28T09:47:04;7.60;67.90
44851;DHT22;30583;48.714;9.386;2023-12-28T09:49:32;7.50;68.20
44851;DHT22;30583;48.714;9.386;2023-12-28T09:51:59;7.80;67.50
44851;DHT22;30583;48.714;9.386;2023-12-28T09:54:25;7.90;67.70
44851;DHT22;30583;48.714;9.386;2023-12-28T09:56:51;7.80;67.70
44851;DHT22;30583;48.714;9.386;2023-12-28T09:59:17;7.80;67.90
44851;DHT22;30583;48.714;9.386;2023-12-28T10:01:45;7.40;67.90
44851;DHT22;30583;48.714;9.386;2023-12-28T10:04:12;7.60;68.30
44851;DHT22;30583;48.714;9.386;2023-12-28T10:06:38;7.70;68.00
44851;DHT22;30583;48.714;9.386;2023-12-28T10:09:06;7.60;68.80
44851;DHT22;30583;48.714;9.386;2023-12-28T10:11:33;7.90;68.20
44851;DHT22;30583;48.714;9.386;2023-12-28T10:13:59;7.90;68.20
44851;DHT22;30583;48.714;9.386;2023-12-28T10:16:25;8.00;67.70
44851;DHT22;30583;48.714;9.386;2023-12-28T10:18:51;7.80;68.50
44851;DHT22;30583;48.714;9.386;2023-12-28T10:21:16;8.10;68.20
44851;DHT22;30583;48.714;9.386;2023-12-28T10:23:42;8.20;67.90
44851;DHT22;30583;48.714;9.386;2023-12-28T10:26:08;8.10;68.00
44851;DHT22;30583;48.714;9.386;2023-12-28T10:28:36;8.20;68.20
44851;DHT22;30583;48.714;9.386;2023-12-28T10:31:03;8.10;68.10
44851;DHT22;30583;48.714;9.386;2023-12-28T10:33:38;7.80;68.70
44851;DHT22;30583;48.714;9.386;2023-12-28T10:36:08;7.90;69.50
44851;DHT22;30583;48.714;9.386;2023-12-28T10:38:37;7.80;69.30
44851;DHT22;30583;48.714;9.386;2023-12-28T10:41:10;7.90;69.60
44851;DHT22;30583;48.714;9.386;2023-12-28T10:44:24;8.00;69.40
44851;DHT22;30583;48.714;9.386;2023-12-28T10:46:31;8.20;68.80
44851;DHT22;30583;48.714;9.386;2023-12-28T10:49:10;8.20;69.50
44851;DHT22;30583;48.714;9.386;2023-12-28T10:51:41;8.50;68.80
44851;DHT22;30583;48.714;9.386;2023-12-28T11:00:00;8.80;67.80
44851;DHT22;30583;48.714;9.386;2023-12-28T11:02:31;8.90;67.50
44851;DHT22;30583;48.714;9.386;2023-12-28T11:04:59;8.70;67.80
44851;DHT22;30583;48.714;9.386;2023-12-28T11:07:26;8.60;68.20
44851;DHT22;30583;48.714;9.386;2023-12-28T11:10:02;8.50;68.50
44851;DHT22;30583;48.714;9.386;2023-12-28T11:12:30;8.70;68.30
44851;DHT22;30583;48.714;9.386;2023-12-28T11:14:57;8.80;68.20
44851;DHT22;30583;48.714;9.386;2023-12-28T11:17:23;8.90;68.00
44851;DHT22;30583;48.714;9.386;2023-12-28T11:19:54;8.80;68.20
44851;DHT22;30583;48.714;9.386;2023-12-28T11:22:22;8.70;68.70
44851;DHT22;30583;48.714;9.386;2023-12-28T11:24:49;8.70;68.90
44851;DHT22;30583;48.714;9.386;2023-12-28T11:27:18;8.80;69.00
44851;DHT22;30583;48.714;9.386;2023-12-28T11:29:44;8.90;68.80
44851;DHT22;30583;48.714;9.386;2023-12-28T11:32:10;8.80;69.00
44851;DHT22;30583;48.714;9.386;2023-12-28T11:34:36;9.10;68.40
44851;DHT22;30583;48.714;9.386;2023-12-28T11:37:12;9.20;68.30
44851;DHT22;30583;48.714;9.386;2023-12-28T11:39:38;9.20;68.30
44851;DHT22;30583;48.714;9.386;2023-12-28T11:42:09;9.20;67.90
44851;DHT22;30583;48.714;9.386;2023-12-28T11:44:44;8.90;68.50
44851;DHT22;30583;48.714;9.386;2023-12-28T11:47:23;8.90;68.70
44851;DHT22;30583;48.714;9.386;2023-12-28T11:49:49;9.00;69.00
44851;DHT22;30583;48.714;9.386;2023-12-28T11:52:27;9.10;68.70
44851;DHT22;30583;48.714;9.386;2023-12-28T11:54:53;9.30;68.50
44851;DHT22;30583;48.714;9.386;2023-12-28T11:57:19;9.40;68.40
44851;DHT22;30583;48.714;9.386;2023-12-28T11:59:44;9.30;68.70
44851;DHT22;30583;48.714;9.386;2023-12-28T12:02:10;9.20;68.90
44851;DHT22;30583;48.714;9.386;2023-12-28T12:04:36;9.20;68.90
44851;DHT22;30583;48.714;9.386;2023-12-28T12:07:02;9.10;69.30
44851;DHT22;30583;48.714;9.386;2023-12-28T12:09:29;9.30;69.00
44851;DHT22;30583;48.714;9.386;2023-12-28T12:12:03;9.30;69.00
44851;DHT22;30583;48.714;9.386;2023-12-28T12:14:29;9.50;68.60
44851;DHT22;30583;48.714;9.386;2023-12-28T12:16:58;9.60;68.40
44851;DHT22;30583;48.714;9.386;2023-12-28T12:19:24;9.40;68.70
44851;DHT22;30583;48.714;9.386;2023-12-28T12:21:52;9.50;68.60
44851;DHT22;30583;48.714;9.386;2023-12-28T12:24:18;9.60;68.50
44851;DHT22;30583;48.714;9.386;2023-12-28T12:26:45;9.60;68.50
44851;DHT22;30583;48.714;9.386;2023-12-28T12:29:11;9.60;68.80
44851;DHT22;30583;48.714;9.386;2023-12-28T12:31:37;9.60;68.90
44851;DHT22;30583;48.714;9.386;2023-12-28T12:34:05;9.60;68.80
44851;DHT22;30583;48.714;9.386;2023-12-28T12:36:31;9.70;68.60
44851;DHT22;30583;48.714;9.386;2023-12-28T12:38:57;9.70;68.60
44851;DHT22;30583;48.714;9.386;2023-12-28T12:41:23;9.70;68.10
44851;DHT22;30583;48.714;9.386;2023-12-28T12:43:48;9.70;68.30
44851;DHT22;30583;48.714;9.386;2023-12-28T12:46:14;9.50;68.70
44851;DHT22;30583;48.714;9.386;2023-12-28T12:48:40;9.50;69.20
44851;DHT22;30583;48.714;9.386;2023-12-28T12:51:06;9.70;68.80
44851;DHT22;30583;48.714;9.386;2023-12-28T12:53:35;9.70;68.60
44851;DHT22;30583;48.714;9.386;2023-12-28T12:56:03;9.70;68.70
44851;DHT22;30583;48.714;9.386;2023-12-28T12:58:29;9.70;68.90
44851;DHT22;30583;48.714;9.386;2023-12-28T13:00:56;9.80;68.80
44851;DHT22;30583;48.714;9.386;2023-12-28T13:03:22;9.70;69.50
44851;DHT22;30583;48.714;9.386;2023-12-28T13:05:48;9.70;70.50
44851;DHT22;30583;48.714;9.386;2023-12-28T13:08:13;9.70;70.40
44851;DHT22;30583;48.714;9.386;2023-12-28T13:10:39;9.70;71.50
44851;DHT22;30583;48.714;9.386;2023-12-28T13:13:08;9.80;71.30
44851;DHT22;30583;48.714;9.386;2023-12-28T13:15:34;9.80;70.80
44851;DHT22;30583;48.714;9.386;2023-12-28T13:17:59;9.80;71.10
44851;DHT22;30583;48.714;9.386;2023-12-28T13:20:25;9.90;70.90
44851;DHT22;30583;48.714;9.386;2023-12-28T13:22:51;9.90;71.00
44851;DHT22;30583;48.714;9.386;2023-12-28T13:25:16;9.80;71.60
44851;DHT22;30583;48.714;9.386;2023-12-28T13:27:42;9.80;72.40
44851;DHT22;30583;48.714;9.386;2023-12-28T13:30:08;9.80;72.70
44851;DHT22;30583;48.714;9.386;2023-12-28T13:32:34;9.70;73.60
44851;DHT22;30583;48.714;9.386;2023-12-28T13:34:59;9.70;73.80
44851;DHT22;30583;48.714;9.386;2023-12-28T13:37:25;9.90;73.50
44851;DHT22;30583;48.714;9.386;2023-12-28T13:39:50;9.90;73.10
44851;DHT22;30583;48.714;9.386;2023-12-28T13:42:16;9.80;73.70
44851;DHT22;30583;48.714;9.386;2023-12-28T13:44:42;9.70;74.00
44851;DHT22;30583;48.714;9.386;2023-12-28T13:47:08;9.80;73.70
44851;DHT22;30583;48.714;9.386;2023-12-28T13:49:34;9.90;73.30
44851;DHT22;30583;48.714;9.386;2023-12-28T13:52:00;9.90;73.00
44851;DHT22;30583;48.714;9.386;2023-12-28T13:54:25;9.90;73.00
44851;DHT22;30583;48.714;9.386;2023-12-28T13:56:51;9.90;73.70
44851;DHT22;30583;48.714;9.386;2023-12-28T13:59:22;9.90;73.90
44851;DHT22;30583;48.714;9.386;2023-12-28T14:01:48;9.90;74.00
44851;DHT22;30583;48.714;9.386;2023-12-28T14:04:16;9.80;75.00
44851;DHT22;30583;48.714;9.386;2023-12-28T14:06:42;9.80;75.80
44851;DHT22;30583;48.714;9.386;2023-12-28T14:09:07;9.70;76.20
44851;DHT22;30583;48.714;9.386;2023-12-28T14:11:33;9.80;76.40
44851;DHT22;30583;48.714;9.386;2023-12-28T14:13:59;9.80;76.80
44851;DHT22;30583;48.714;9.386;2023-12-28T14:16:25;9.80;76.80
44851;DHT22;30583;48.714;9.386;2023-12-28T14:18:50;9.70;77.20
44851;DHT22;30583;48.714;9.386;2023-12-28T14:21:18;9.70;77.50
44851;DHT22;30583;48.714;9.386;2023-12-28T14:23:44;9.70;77.50
44851;DHT22;30583;48.714;9.386;2023-12-28T14:26:14;9.70;77.60
44851;DHT22;30583;48.714;9.386;2023-12-28T14:28:43;9.70;77.70
44851;DHT22;30583;48.714;9.386;2023-12-28T14:31:12;9.70;77.90
44851;DHT22;30583;48.714;9.386;2023-12-28T14:33:38;9.60;78.10
44851;DHT22;30583;48.714;9.386;2023-12-28T14:36:30;9.60;78.40
44851;DHT22;30583;48.714;9.386;2023-12-28T14:39:00;9.70;77.80
44851;DHT22;30583;48.714;9.386;2023-12-28T14:41:26;9.70;77.80
44851;DHT22;30583;48.714;9.386;2023-12-28T14:43:51;9.70;78.10
44851;DHT22;30583;48.714;9.386;2023-12-28T14:46:17;9.70;77.90
44851;DHT22;30583;48.714;9.386;2023-12-28T14:48:43;9.70;78.00
44851;DHT22;30583;48.714;9.386;2023-12-28T14:51:08;9.70;77.80
44851;DHT22;30583;48.714;9.386;2023-12-28T14:53:34;9.70;77.50
44851;DHT22;30583;48.714;9.386;2023-12-28T14:55:59;9.70;77.60
44851;DHT22;30583;48.714;9.386;2023-12-28T14:58:25;9.70;77.50
44851;DHT22;30583;48.714;9.386;2023-12-28T15:00:52;9.70;77.90
44851;DHT22;30583;48.714;9.386;2023-12-28T15:03:17;9.70;78.20
44851;DHT22;30583;48.714;9.386;2023-12-28T15:05:43;9.60;78.20
44851;DHT22;30583;48.714;9.386;2023-12-28T15:08:09;9.60;78.50
44851;DHT22;30583;48.714;9.386;2023-12-28T15:10:34;9.60;78.60
44851;DHT22;30583;48.714;9.386;2023-12-28T15:13:01;9.60;78.90
44851;DHT22;30583;48.714;9.386;2023-12-28T15:15:27;9.70;78.70
44851;DHT22;30583;48.714;9.386;2023-12-28T15:17:53;9.60;79.00
44851;DHT22;30583;48.714;9.386;2023-12-28T15:20:19;9.60;79.10
44851;DHT22;30583;48.714;9.386;2023-12-28T15:22:51;9.60;79.50
44851;DHT22;30583;48.714;9.386;2023-12-28T15:25:18;9.60;79.30
44851;DHT22;30583;48.714;9.386;2023-12-28T15:27:44;9.70;79.30
44851;DHT22;30583;48.714;9.386;2023-12-28T15:30:09;9.60;79.70
44851;DHT22;30583;48.714;9.386;2023-12-28T15:32:38;9.70;79.50
44851;DHT22;30583;48.714;9.386;2023-12-28T15:35:04;9.70;79.50
44851;DHT22;30583;48.714;9.386;2023-12-28T15:37:32;9.60;79.60
44851;DHT22;30583;48.714;9.386;2023-12-28T15:39:57;9.70;79.50
44851;DHT22;30583;48.714;9.386;2023-12-28T15:42:23;9.70;79.60
44851;DHT22;30583;48.714;9.386;2023-12-28T15:44:54;9.60;80.00
44851;DHT22;30583;48.714;9.386;2023-12-28T15:47:20;9.50;80.30
44851;DHT22;30583;48.714;9.386;2023-12-28T15:49:45;9.60;80.20
44851;DHT22;30583;48.714;9.386;2023-12-28T15:52:11;9.60;80.20